Long Branch, Texas
Current Conditions -  °F | °C
As of 9:15 AM on Friday 19 Dec 2014 (Local Time) from KRFI Reporting Station
Moderate Rain Moderate Rain  
Wind Chill:   Ceiling: 500
Heat Index:   Visibility: 7mi
Dew Point:   Wind: 8mph
Humidity: 100%   Direction: 10°N
Pressure: 30.23"   Gusts: NA
Location:  32°N, 94.53°W
Report Text: KRFI 191515Z AUTO 01007KT 7SM RA OVC005 08/08 A3023 RMK AO2 T00830083
Loading
Personal Weather Stations






























Interactive Weather Map New forecast layout! Learn more

10-Day Weather Forecast

Advertisements
Track Severe Weather on mobile